Time;durP1;ratioP1;P1;durP2;ratioP2;P2;SDS_P1;SDS_P2;PMS_P1;PMS_P2;Temp;Humidity;BMP_temperature;BMP_pressure;BME280_temperature;BME280_humidity;BME280_pressure;Samples;Min_cycle;Max_cycle;Signal;HPM_P1;HPM_P2
2023/12/17 00:01:44;;;;;;;;;;;;;;;19.88;49.17;99109.67;612041;232;62556;-72
2023/12/17 00:04:12;;;;;;;;;;;;;;;19.86;49.19;99117.06;612054;232;65451;-72
2023/12/17 00:06:41;;;;;;;;;;;;;;;19.86;49.21;99117.91;612035;232;64800;-72
2023/12/17 00:09:09;;;;;;;;;;;;;;;19.85;49.22;99118.11;612030;232;62546;-71
2023/12/17 00:11:40;;;;;;;;;;;;;;;19.84;49.21;99113.81;612045;232;65449;-71
2023/12/17 00:14:09;;;;;;;;;;;;;;;19.88;49.19;99120.35;611985;232;65770;-69
2023/12/17 00:16:37;;;;;;;;;;;;;;;19.84;49.21;99108.48;612045;232;64576;-69
2023/12/17 00:19:04;;;;;;;;;;;;;;;19.87;49.17;99110.72;612034;232;65478;-67
2023/12/17 00:21:32;;;;;;;;;;;;;;;19.85;49.22;99110.92;612017;232;65226;-69
2023/12/17 00:24:00;;;;;;;;;;;;;;;19.85;49.21;99115.44;612066;232;64833;-69
2023/12/17 00:26:27;;;;;;;;;;;;;;;19.86;49.21;99123.25;612034;232;65249;-69
2023/12/17 00:28:55;;;;;;;;;;;;;;;19.85;49.20;99120.78;612012;232;65060;-69
2023/12/17 00:31:22;;;;;;;;;;;;;;;19.85;49.20;99123.45;612060;232;64557;-69
2023/12/17 00:33:50;;;;;;;;;;;;;;;19.86;49.26;99119.73;612024;232;64946;-69
2023/12/17 00:36:17;;;;;;;;;;;;;;;19.84;49.21;99114.63;612031;232;62948;-69
2023/12/17 00:38:45;;;;;;;;;;;;;;;19.84;49.26;99117.30;612019;232;62464;-69
2023/12/17 00:41:13;;;;;;;;;;;;;;;19.86;49.26;99128.59;612034;232;63231;-69
2023/12/17 00:43:41;;;;;;;;;;;;;;;19.86;49.22;99119.73;612061;232;65341;-70
2023/12/17 00:46:08;;;;;;;;;;;;;;;19.84;49.22;99119.16;611991;232;64557;-67
2023/12/17 00:48:36;;;;;;;;;;;;;;;19.85;49.23;99118.11;612017;232;66419;-67
2023/12/17 00:51:04;;;;;;;;;;;;;;;19.86;49.24;99114.40;612055;232;65082;-67
2023/12/17 00:53:31;;;;;;;;;;;;;;;19.87;49.17;99126.73;612015;232;65630;-70
2023/12/17 00:55:59;;;;;;;;;;;;;;;19.87;49.23;99129.40;616670;230;65515;-70
2023/12/17 00:58:26;;;;;;;;;;;;;;;19.86;49.19;99135.74;617179;230;63810;-71
2023/12/17 01:00:54;;;;;;;;;;;;;;;19.84;49.21;99121.82;617108;230;66011;-72
2023/12/17 01:03:21;;;;;;;;;;;;;;;19.85;49.22;99115.44;617136;230;63008;-72
2023/12/17 01:05:49;;;;;;;;;;;;;;;19.85;49.21;99115.44;617162;230;62978;-69
2023/12/17 01:08:16;;;;;;;;;;;;;;;19.84;49.18;99113.81;617139;230;64630;-70
2023/12/17 01:10:44;;;;;;;;;;;;;;;19.84;49.17;99111.15;617185;230;65352;-71
2023/12/17 01:13:11;;;;;;;;;;;;;;;19.84;49.14;99113.81;617138;230;64985;-68
2023/12/17 01:15:39;;;;;;;;;;;;;;;19.85;49.20;99123.45;617136;230;64830;-68
2023/12/17 01:18:08;;;;;;;;;;;;;;;19.85;49.23;99124.26;617102;230;46075;-68
2023/12/17 01:20:36;;;;;;;;;;;;;;;19.82;49.19;99121.20;617148;230;62840;-68
2023/12/17 01:23:06;;;;;;;;;;;;;;;19.85;49.19;99128.78;617129;230;64607;-68
2023/12/17 01:25:34;;;;;;;;;;;;;;;19.85;49.14;99123.45;617174;230;66186;-68
2023/12/17 01:28:04;;;;;;;;;;;;;;;19.85;49.19;99120.78;617153;230;65737;-69
2023/12/17 01:30:32;;;;;;;;;;;;;;;19.85;49.17;99128.78;617149;230;64673;-71
2023/12/17 01:33:04;;;;;;;;;;;;;;;19.84;49.23;99133.30;617136;230;65460;-72
2023/12/17 01:35:30;;;;;;;;;;;;;;;19.85;49.28;99128.78;616819;230;66139;-71
2023/12/17 01:37:58;;;;;;;;;;;;;;;19.82;49.27;99121.20;617139;230;63458;-71
2023/12/17 01:40:25;;;;;;;;;;;;;;;19.85;49.23;99123.45;617130;230;65567;-72
2023/12/17 01:42:53;;;;;;;;;;;;;;;19.84;49.28;99116.48;617165;230;64738;-72
2023/12/17 01:45:20;;;;;;;;;;;;;;;19.84;49.20;99113.81;617206;230;64545;-71
2023/12/17 01:47:48;;;;;;;;;;;;;;;19.82;49.22;99107.87;617158;230;65770;-69
2023/12/17 01:50:16;;;;;;;;;;;;;;;19.84;49.25;99109.30;617183;230;62951;-69
2023/12/17 01:52:44;;;;;;;;;;;;;;;19.84;49.22;99111.15;617127;230;62516;-69
2023/12/17 01:55:12;;;;;;;;;;;;;;;19.84;49.22;99103.95;617087;230;65235;-69
2023/12/17 01:57:40;;;;;;;;;;;;;;;19.84;49.20;99103.95;617194;230;64871;-69
2023/12/17 02:00:08;;;;;;;;;;;;;;;19.85;49.22;99105.58;617154;230;64770;-69
2023/12/17 02:02:36;;;;;;;;;;;;;;;19.82;49.22;99103.34;617126;230;65120;-69
2023/12/17 02:05:05;;;;;;;;;;;;;;;19.84;49.22;99097.81;617177;230;62745;-69
2023/12/17 02:07:33;;;;;;;;;;;;;;;19.82;49.20;99099.86;617127;230;65237;-69
2023/12/17 02:10:00;;;;;;;;;;;;;;;19.82;49.25;99097.20;617168;230;64191;-69
2023/12/17 02:12:29;;;;;;;;;;;;;;;19.85;49.27;99094.09;617172;230;65193;-69
2023/12/17 02:14:56;;;;;;;;;;;;;;;19.85;49.25;99096.77;617119;230;64769;-69
2023/12/17 02:17:28;;;;;;;;;;;;;;;19.83;49.21;99086.29;617143;230;65542;-69
2023/12/17 02:19:56;;;;;;;;;;;;;;;19.84;49.21;99087.14;617143;230;63794;-71
2023/12/17 02:22:24;;;;;;;;;;;;;;;19.82;49.20;99089.19;617135;230;65189;-72
2023/12/17 02:24:53;;;;;;;;;;;;;;;19.84;49.25;99095.14;617145;230;63184;-69
2023/12/17 02:27:24;;;;;;;;;;;;;;;19.83;49.19;99088.15;617138;230;63335;-69
2023/12/17 02:29:52;;;;;;;;;;;;;;;19.84;49.21;99089.80;617136;230;62516;-69
2023/12/17 02:32:21;;;;;;;;;;;;;;;19.82;49.20;99092.67;617120;230;65471;-71
2023/12/17 02:34:49;;;;;;;;;;;;;;;19.83;49.20;99083.62;617184;230;62696;-71
2023/12/17 02:37:17;;;;;;;;;;;;;;;19.80;49.18;99077.91;617129;230;64384;-71
2023/12/17 02:39:44;;;;;;;;;;;;;;;19.83;49.30;99082.81;617139;230;65622;-71
2023/12/17 02:42:12;;;;;;;;;;;;;;;19.83;49.17;99082.81;617115;230;65549;-72
2023/12/17 02:44:39;;;;;;;;;;;;;;;19.81;49.17;99074.22;617147;230;64626;-71
2023/12/17 02:47:06;;;;;;;;;;;;;;;19.80;49.19;99075.23;617088;230;65244;-71
2023/12/17 02:49:35;;;;;;;;;;;;;;;19.82;49.20;99082.00;617140;230;65022;-71
2023/12/17 02:52:03;;;;;;;;;;;;;;;19.83;49.21;99083.62;617139;230;62513;-71
2023/12/17 02:54:30;;;;;;;;;;;;;;;19.82;49.17;99078.52;615578;230;66504;-71
2023/12/17 02:56:58;;;;;;;;;;;;;;;19.82;49.21;99086.52;612039;232;62926;-71
2023/12/17 02:59:25;;;;;;;;;;;;;;;19.83;49.21;99090.81;612067;232;62404;-69
2023/12/17 03:01:53;;;;;;;;;;;;;;;19.82;49.19;99098.00;612037;232;62712;-69
2023/12/17 03:04:20;;;;;;;;;;;;;;;19.85;49.21;99102.10;612038;232;62723;-69
2023/12/17 03:06:48;;;;;;;;;;;;;;;19.82;49.19;99100.67;612033;232;64485;-69
2023/12/17 03:09:15;;;;;;;;;;;;;;;19.83;49.23;99098.82;612057;232;63128;-70
2023/12/17 03:11:43;;;;;;;;;;;;;;;19.82;49.20;99098.00;612019;232;65393;-69
2023/12/17 03:14:10;;;;;;;;;;;;;;;19.81;49.23;99093.71;612034;232;64611;-69
2023/12/17 03:16:38;;;;;;;;;;;;;;;19.81;49.16;99085.70;612039;232;65507;-69
2023/12/17 03:19:05;;;;;;;;;;;;;;;19.82;49.20;99097.20;612039;232;65230;-69
2023/12/17 03:21:33;;;;;;;;;;;;;;;19.81;49.16;99101.72;612049;232;64725;-69
2023/12/17 03:24:00;;;;;;;;;;;;;;;19.82;49.16;99097.20;612064;232;62977;-69
2023/12/17 03:26:28;;;;;;;;;;;;;;;19.81;49.15;99095.57;612062;232;65046;-69
2023/12/17 03:28:55;;;;;;;;;;;;;;;19.82;49.15;99103.34;612024;232;64646;-71
2023/12/17 03:31:23;;;;;;;;;;;;;;;19.83;49.18;99112.97;612029;232;65477;-71
2023/12/17 03:33:50;;;;;;;;;;;;;;;19.80;49.19;99107.25;612057;232;62890;-71
2023/12/17 03:36:18;;;;;;;;;;;;;;;19.81;49.15;99115.06;612029;232;62526;-71
2023/12/17 03:38:46;;;;;;;;;;;;;;;19.81;49.16;99122.25;612058;232;63024;-71
2023/12/17 03:41:18;;;;;;;;;;;;;;;19.82;49.14;99134.55;611999;232;65681;-71
2023/12/17 03:43:46;;;;;;;;;;;;;;;19.83;49.14;99136.17;611995;231;62490;-70
2023/12/17 03:46:13;;;;;;;;;;;;;;;19.82;49.14;99134.55;612035;232;63013;-69
2023/12/17 03:48:40;;;;;;;;;;;;;;;19.80;49.16;99140.08;612067;232;62656;-68
2023/12/17 03:51:08;;;;;;;;;;;;;;;19.80;49.14;99142.75;612024;232;62350;-68
2023/12/17 03:53:35;;;;;;;;;;;;;;;19.82;49.14;99137.22;612018;232;63965;-68
2023/12/17 03:56:03;;;;;;;;;;;;;;;19.81;49.18;99138.25;611965;230;65488;-68
2023/12/17 03:58:30;;;;;;;;;;;;;;;19.80;49.12;99147.27;612023;232;64651;-68
2023/12/17 04:00:58;;;;;;;;;;;;;;;19.81;49.13;99143.59;612043;232;62681;-68
2023/12/17 04:03:25;;;;;;;;;;;;;;;19.80;49.15;99140.08;612034;232;62888;-70
2023/12/17 04:05:53;;;;;;;;;;;;;;;19.80;49.13;99137.41;612034;232;62467;-71
2023/12/17 04:08:21;;;;;;;;;;;;;;;19.80;49.13;99142.75;612004;232;63757;-71
2023/12/17 04:10:48;;;;;;;;;;;;;;;19.80;49.13;99136.59;612034;232;63057;-69
2023/12/17 04:13:16;;;;;;;;;;;;;;;19.79;49.14;99135.79;612060;232;62476;-68
2023/12/17 04:15:43;;;;;;;;;;;;;;;19.81;49.11;99138.25;612044;232;62932;-68
2023/12/17 04:18:11;;;;;;;;;;;;;;;19.78;49.09;99135.98;612024;232;65028;-68
2023/12/17 04:20:38;;;;;;;;;;;;;;;19.80;49.13;99139.27;612003;232;64647;-68
2023/12/17 04:23:06;;;;;;;;;;;;;;;19.79;49.12;99141.13;612024;232;65700;-69
2023/12/17 04:25:33;;;;;;;;;;;;;;;19.80;49.21;99132.08;612035;232;65248;-68
2023/12/17 04:28:01;;;;;;;;;;;;;;;19.81;49.07;99138.25;612043;232;64668;-68
2023/12/17 04:30:29;;;;;;;;;;;;;;;19.81;49.05;99141.73;612049;232;65234;-68
2023/12/17 04:32:56;;;;;;;;;;;;;;;19.81;49.09;99138.25;612017;232;65149;-68
2023/12/17 04:35:25;;;;;;;;;;;;;;;19.82;49.10;99139.88;612040;232;62455;-68
2023/12/17 04:37:52;;;;;;;;;;;;;;;19.80;49.06;99128.59;612049;232;65464;-68
2023/12/17 04:40:20;;;;;;;;;;;;;;;19.80;49.07;99133.93;612036;232;65021;-69
2023/12/17 04:42:47;;;;;;;;;;;;;;;19.81;49.09;99135.59;612037;232;62491;-68
2023/12/17 04:45:15;;;;;;;;;;;;;;;19.79;49.05;99130.45;611986;232;65423;-68
2023/12/17 04:47:42;;;;;;;;;;;;;;;19.80;49.03;99136.59;612032;232;65354;-68
2023/12/17 04:50:10;;;;;;;;;;;;;;;19.81;49.01;99140.92;612011;232;64576;-68
2023/12/17 04:52:37;;;;;;;;;;;;;;;19.78;49.06;99131.49;612031;232;65434;-71
2023/12/17 04:55:05;;;;;;;;;;;;;;;19.80;49.05;99144.61;611964;230;65291;-71
2023/12/17 04:57:33;;;;;;;;;;;;;;;19.78;48.99;99143.98;612018;232;64630;-71
2023/12/17 05:00:02;;;;;;;;;;;;;;;19.81;49.04;99149.74;612034;232;65611;-71
2023/12/17 05:02:29;;;;;;;;;;;;;;;19.77;49.00;99145.84;612021;232;62750;-71
2023/12/17 05:04:56;;;;;;;;;;;;;;;19.79;48.98;99146.46;612032;232;62419;-71
2023/12/17 05:07:24;;;;;;;;;;;;;;;19.79;48.99;99151.80;612015;232;63007;-71
2023/12/17 05:09:52;;;;;;;;;;;;;;;19.77;48.99;99148.52;612021;232;63481;-71
2023/12/17 05:12:20;;;;;;;;;;;;;;;19.80;48.97;99156.09;612028;232;64573;-71
2023/12/17 05:14:47;;;;;;;;;;;;;;;19.80;48.99;99155.28;612027;232;66265;-71
2023/12/17 05:17:15;;;;;;;;;;;;;;;19.78;48.97;99146.66;611971;232;65001;-71
2023/12/17 05:19:42;;;;;;;;;;;;;;;19.78;48.97;99150.17;612035;232;62541;-71
2023/12/17 05:22:10;;;;;;;;;;;;;;;19.77;49.06;99147.70;612043;232;63099;-71
2023/12/17 05:24:37;;;;;;;;;;;;;;;19.79;48.99;99159.80;612018;232;62904;-71
2023/12/17 05:27:05;;;;;;;;;;;;;;;19.80;48.92;99157.95;612064;232;63283;-71
2023/12/17 05:29:32;;;;;;;;;;;;;;;19.78;48.98;99151.99;611988;232;62906;-71
2023/12/17 05:32:00;;;;;;;;;;;;;;;19.79;48.97;99157.13;612030;232;63012;-71
2023/12/17 05:34:27;;;;;;;;;;;;;;;19.79;48.93;99153.65;611988;232;64715;-71
2023/12/17 05:36:55;;;;;;;;;;;;;;;19.79;48.93;99158.98;612001;232;65758;-71
2023/12/17 05:39:22;;;;;;;;;;;;;;;19.77;48.91;99153.84;612055;232;65042;-71
2023/12/17 05:41:50;;;;;;;;;;;;;;;19.78;48.90;99154.66;612018;232;64678;-71
2023/12/17 05:44:17;;;;;;;;;;;;;;;19.77;48.98;99142.36;611998;232;65415;-68
2023/12/17 05:46:45;;;;;;;;;;;;;;;19.74;48.88;99144.41;612039;232;62978;-68
2023/12/17 05:49:12;;;;;;;;;;;;;;;19.78;48.89;99149.33;612025;232;62527;-68
2023/12/17 05:51:42;;;;;;;;;;;;;;;19.78;48.92;99155.50;612075;232;62843;-68
2023/12/17 05:54:11;;;;;;;;;;;;;;;19.77;48.87;99147.70;611820;230;62770;-68
2023/12/17 05:56:40;;;;;;;;;;;;;;;19.78;48.85;99151.99;612020;232;65682;-68
2023/12/17 05:59:07;;;;;;;;;;;;;;;19.78;48.88;99142.16;612023;232;62934;-71
2023/12/17 06:01:35;;;;;;;;;;;;;;;19.78;48.85;99141.32;612048;232;64834;-71
2023/12/17 06:04:03;;;;;;;;;;;;;;;19.78;48.84;99141.32;612042;232;64525;-71
2023/12/17 06:06:30;;;;;;;;;;;;;;;19.78;48.81;99142.16;612039;232;65141;-71
2023/12/17 06:08:58;;;;;;;;;;;;;;;19.79;48.84;99148.31;612012;232;64834;-71
2023/12/17 06:11:25;;;;;;;;;;;;;;;19.77;48.80;99143.17;612044;232;64585;-71
2023/12/17 06:13:53;;;;;;;;;;;;;;;19.76;48.81;99135.41;612040;232;65062;-71
2023/12/17 06:16:21;;;;;;;;;;;;;;;19.77;48.78;99139.70;612051;232;64758;-68
2023/12/17 06:18:50;;;;;;;;;;;;;;;19.77;48.77;99134.36;611999;232;62488;-69
2023/12/17 06:21:22;;;;;;;;;;;;;;;19.78;48.76;99138.66;612043;232;65640;-68
2023/12/17 06:23:50;;;;;;;;;;;;;;;19.77;48.77;99142.36;611973;232;65467;-68
2023/12/17 06:26:21;;;;;;;;;;;;;;;19.76;48.78;99146.88;612017;232;62482;-68
2023/12/17 06:28:48;;;;;;;;;;;;;;;19.78;48.77;99143.98;612036;232;65500;-68
2023/12/17 06:31:16;;;;;;;;;;;;;;;19.75;48.79;99139.89;612069;232;65210;-68
2023/12/17 06:33:43;;;;;;;;;;;;;;;19.76;48.75;99138.06;612067;232;64881;-68
2023/12/17 06:36:11;;;;;;;;;;;;;;;19.77;48.78;99142.36;612004;232;65249;-68
2023/12/17 06:38:41;;;;;;;;;;;;;;;19.75;48.77;99134.55;612041;232;65286;-68
2023/12/17 06:41:08;;;;;;;;;;;;;;;19.78;48.76;99138.66;612077;232;62822;-68
2023/12/17 06:43:39;;;;;;;;;;;;;;;19.74;48.74;99138.27;612068;232;63073;-70
2023/12/17 06:46:07;;;;;;;;;;;;;;;19.74;48.73;99136.41;612097;232;65410;-71
2023/12/17 06:48:35;;;;;;;;;;;;;;;19.77;48.76;99147.70;612000;232;64721;-70
2023/12/17 06:51:03;;;;;;;;;;;;;;;19.74;48.71;99146.27;612034;232;63581;-68
2023/12/17 06:53:30;;;;;;;;;;;;;;;19.76;48.75;99138.88;612068;232;63094;-68
2023/12/17 06:55:58;;;;;;;;;;;;;;;19.76;48.72;99141.55;612021;230;62594;-68
2023/12/17 06:58:25;;;;;;;;;;;;;;;19.75;48.68;99150.56;612022;232;65404;-68
2023/12/17 07:00:53;;;;;;;;;;;;;;;19.76;48.67;99154.08;612063;232;65059;-68
2023/12/17 07:03:20;;;;;;;;;;;;;;;19.74;48.68;99155.09;611903;232;64572;-68
2023/12/17 07:05:48;;;;;;;;;;;;;;;19.75;48.75;99158.56;611907;232;65709;-68
2023/12/17 07:08:15;;;;;;;;;;;;;;;19.73;48.79;99150.79;611925;232;67667;-68
2023/12/17 07:10:43;;;;;;;;;;;;;;;19.76;48.82;99146.88;611918;232;65771;-68
2023/12/17 07:13:10;;;;;;;;;;;;;;;19.75;48.80;99142.56;611870;232;67031;-68
2023/12/17 07:15:38;;;;;;;;;;;;;;;19.74;50.24;99139.08;611915;232;66862;-68
2023/12/17 07:18:05;;;;;;;;;;;;;;;19.72;48.50;99141.16;611887;232;64835;-68
2023/12/17 07:20:33;;;;;;;;;;;;;;;19.76;48.52;99138.06;611910;232;67134;-70
2023/12/17 07:23:00;;;;;;;;;;;;;;;19.73;48.78;99131.30;611897;232;67006;-71
2023/12/17 07:25:28;;;;;;;;;;;;;;;19.77;48.73;99137.03;611893;232;64568;-71
2023/12/17 07:27:55;;;;;;;;;;;;;;;19.76;49.32;99140.73;611917;232;67061;-70
2023/12/17 07:30:22;;;;;;;;;;;;;;;19.77;49.80;99140.51;611911;232;67530;-70
2023/12/17 07:32:50;;;;;;;;;;;;;;;19.75;49.13;99139.89;611897;232;64624;-71
2023/12/17 07:35:17;;;;;;;;;;;;;;;19.74;49.31;99139.08;611900;232;67183;-71
2023/12/17 07:37:45;;;;;;;;;;;;;;;19.74;50.14;99135.59;611892;232;65117;-70
2023/12/17 07:40:13;;;;;;;;;;;;;;;19.75;50.54;99134.55;611887;232;62491;-70
2023/12/17 07:42:41;;;;;;;;;;;;;;;19.77;50.08;99137.03;611901;232;67182;-70
2023/12/17 07:45:09;;;;;;;;;;;;;;;19.77;48.86;99131.69;611901;232;67040;-71
2023/12/17 07:47:37;;;;;;;;;;;;;;;19.78;48.45;99131.49;611899;232;64755;-70
2023/12/17 07:50:04;;;;;;;;;;;;;;;19.79;48.39;99140.31;611914;232;67217;-70
2023/12/17 07:52:32;;;;;;;;;;;;;;;19.76;48.33;99133.55;611895;232;67110;-70
2023/12/17 07:54:59;;;;;;;;;;;;;;;19.78;48.48;99143.98;614388;230;64564;-71
2023/12/17 07:57:28;;;;;;;;;;;;;;;19.79;48.96;99146.46;617025;230;66828;-70
2023/12/17 07:59:55;;;;;;;;;;;;;;;19.79;49.02;99148.31;617024;230;64630;-70
2023/12/17 08:02:23;;;;;;;;;;;;;;;19.79;48.29;99150.98;617006;230;63295;-70
2023/12/17 08:04:51;;;;;;;;;;;;;;;19.80;48.81;99157.95;617019;230;65189;-71
2023/12/17 08:07:19;;;;;;;;;;;;;;;19.78;52.04;99151.99;617038;230;68075;-70
2023/12/17 08:09:46;;;;;;;;;;;;;;;19.79;49.13;99153.65;617033;230;64709;-71
2023/12/17 08:12:14;;;;;;;;;;;;;;;19.80;48.76;99152.61;617014;230;67131;-71
2023/12/17 08:14:41;;;;;;;;;;;;;;;19.79;50.04;99154.46;617032;230;67398;-71
2023/12/17 08:17:09;;;;;;;;;;;;;;;19.80;49.58;99144.61;617024;230;64794;-71
2023/12/17 08:19:38;;;;;;;;;;;;;;;19.80;48.24;99157.95;617045;230;67044;-71
2023/12/17 08:22:06;;;;;;;;;;;;;;;19.81;48.06;99160.41;617040;230;64805;-71
2023/12/17 08:24:33;;;;;;;;;;;;;;;19.81;48.03;99154.27;616991;230;62446;-70
2023/12/17 08:27:02;;;;;;;;;;;;;;;19.81;48.14;99155.08;617015;230;64827;-70
2023/12/17 08:29:30;;;;;;;;;;;;;;;19.80;47.86;99149.94;617030;230;67167;-70
2023/12/17 08:31:57;;;;;;;;;;;;;;;19.81;47.92;99143.59;617036;230;64601;-70
2023/12/17 08:34:25;;;;;;;;;;;;;;;19.80;47.92;99147.27;616956;230;67036;-70
2023/12/17 08:36:52;;;;;;;;;;;;;;;19.79;47.87;99142.98;617515;227;66949;-70
2023/12/17 08:39:23;;;;;;;;;;;;;;;19.82;47.91;99147.89;621355;227;64680;-70
2023/12/17 08:41:49;;;;;;;;;;;;;;;19.82;47.92;99143.36;624031;227;67048;-71
2023/12/17 08:44:59;;;;;;;;;;;;;;;19.94;47.90;99139.02;633797;222;35561;-71
2023/12/17 08:47:26;;;;;;;;;;;;;;;19.82;47.92;99134.55;620600;226;64635;-71
2023/12/17 08:49:56;;;;;;;;;;;;;;;19.82;47.99;99137.22;621147;228;64287;-71
2023/12/17 08:52:23;;;;;;;;;;;;;;;19.82;47.96;99139.88;623683;226;64075;-71
2023/12/17 08:54:50;;;;;;;;;;;;;;;19.81;47.97;99122.25;628347;226;64475;-71
2023/12/17 08:57:18;;;;;;;;;;;;;;;19.82;48.10;99114.02;628316;226;64423;-71
2023/12/17 08:59:45;;;;;;;;;;;;;;;19.82;48.01;99118.54;628341;226;62776;-70
2023/12/17 09:02:13;;;;;;;;;;;;;;;19.84;48.13;99121.82;628324;226;62474;-70
2023/12/17 09:04:40;;;;;;;;;;;;;;;19.84;48.09;99119.97;628305;226;62100;-70
2023/12/17 09:07:08;;;;;;;;;;;;;;;19.84;48.04;99125.30;628359;226;61972;-71
2023/12/17 09:09:35;;;;;;;;;;;;;;;19.83;48.08;99120.98;628335;223;64368;-71
2023/12/17 09:12:03;;;;;;;;;;;;;;;19.83;48.07;99114.83;628322;226;65291;-70
2023/12/17 09:14:30;;;;;;;;;;;;;;;19.84;47.99;99121.82;628323;226;64193;-71
2023/12/17 09:16:58;;;;;;;;;;;;;;;19.84;47.97;99114.63;628325;226;64535;-71
2023/12/17 09:19:25;;;;;;;;;;;;;;;19.82;47.99;99119.35;628334;226;64464;-71
2023/12/17 09:21:53;;;;;;;;;;;;;;;19.84;48.13;99117.30;628354;226;64087;-71
2023/12/17 09:24:20;;;;;;;;;;;;;;;19.83;48.00;99102.30;628322;226;64751;-71
2023/12/17 09:26:48;;;;;;;;;;;;;;;19.84;48.25;99108.48;628324;226;64557;-71
2023/12/17 09:29:16;;;;;;;;;;;;;;;19.84;48.00;99103.95;628315;226;63948;-71
2023/12/17 09:31:45;;;;;;;;;;;;;;;19.84;48.28;99095.95;628245;225;42356;-71
2023/12/17 09:34:17;;;;;;;;;;;;;;;19.85;48.13;99102.10;624825;226;63156;-71
2023/12/17 09:36:42;;;;;;;;;;;;;;;19.83;47.95;99093.48;624048;226;63058;-71
2023/12/17 09:39:10;;;;;;;;;;;;;;;19.85;48.00;99088.77;624794;226;62405;-71
2023/12/17 09:41:37;;;;;;;;;;;;;;;19.85;47.99;99091.43;620676;228;61929;-71
2023/12/17 09:44:05;;;;;;;;;;;;;;;19.85;47.91;99094.91;612266;231;63985;-71
2023/12/17 09:46:32;;;;;;;;;;;;;;;19.86;47.85;99093.05;619284;229;65626;-71
2023/12/17 09:49:00;;;;;;;;;;;;;;;19.85;47.74;99086.09;611972;232;64670;-71
2023/12/17 09:51:28;;;;;;;;;;;;;;;19.86;47.88;99087.72;619293;229;64186;-71
2023/12/17 09:53:57;;;;;;;;;;;;;;;19.86;47.98;99087.72;611924;232;64704;-71
2023/12/17 09:56:25;;;;;;;;;;;;;;;19.87;47.93;99078.70;619137;229;62356;-71
2023/12/17 09:58:53;;;;;;;;;;;;;;;19.85;47.92;99072.75;611824;232;62127;-71
2023/12/17 10:01:21;;;;;;;;;;;;;;;19.85;47.91;99072.75;619138;229;64655;-71
2023/12/17 10:03:49;;;;;;;;;;;;;;;19.87;47.86;99081.37;611833;230;64636;-71
2023/12/17 10:06:18;;;;;;;;;;;;;;;19.86;47.81;99077.89;619139;229;62405;-71
2023/12/17 10:08:46;;;;;;;;;;;;;;;19.84;47.89;99063.94;611772;230;64653;-71
2023/12/17 10:11:14;;;;;;;;;;;;;;;19.86;47.79;99061.88;619156;229;62153;-71
2023/12/17 10:13:42;;;;;;;;;;;;;;;19.85;47.88;99060.22;611797;232;62066;-72
2023/12/17 10:16:09;;;;;;;;;;;;;;;19.86;47.82;99048.53;619131;229;64587;-72
2023/12/17 10:18:37;;;;;;;;;;;;;;;19.85;47.85;99044.21;611796;232;64428;-72
2023/12/17 10:21:04;;;;;;;;;;;;;;;19.86;47.78;99042.36;619135;229;64388;-72
2023/12/17 10:23:43;;;;;;;;;;;;;;;19.86;47.80;99037.02;611829;232;64512;-72
2023/12/17 10:26:10;;;;;;;;;;;;;;;19.84;47.76;99026.58;610597;230;64470;-72
2023/12/17 10:28:39;;;;;;;;;;;;;;;19.84;47.84;99023.91;619153;229;64154;-72
2023/12/17 10:31:08;;;;;;;;;;;;;;;19.86;47.84;99023.68;611814;232;62498;-72
2023/12/17 10:33:37;;;;;;;;;;;;;;;19.84;47.88;99009.76;619087;229;62251;-72
2023/12/17 10:36:05;;;;;;;;;;;;;;;19.87;47.82;99009.33;611810;232;61897;-72
2023/12/17 10:38:33;;;;;;;;;;;;;;;19.87;47.80;99012.80;619145;229;62473;-72
2023/12/17 10:41:02;;;;;;;;;;;;;;;19.87;47.84;98998.65;611813;232;63250;-71
2023/12/17 10:43:31;;;;;;;;;;;;;;;19.88;47.89;99000.27;619662;228;64199;-72
2023/12/17 10:46:00;;;;;;;;;;;;;;;19.86;47.84;98995.17;613232;231;62285;-72
2023/12/17 10:48:27;;;;;;;;;;;;;;;19.85;47.88;98987.37;620574;228;64460;-70
2023/12/17 10:50:55;;;;;;;;;;;;;;;19.87;47.86;98982.64;613215;231;64157;-70
2023/12/17 10:53:22;;;;;;;;;;;;;;;19.87;47.87;98977.30;620611;228;64510;-70
2023/12/17 10:55:51;;;;;;;;;;;;;;;19.86;47.89;98976.49;613214;231;64499;-70
2023/12/17 10:58:19;;;;;;;;;;;;;;;19.87;47.91;98982.64;620603;228;64912;-70
2023/12/17 11:00:48;;;;;;;;;;;;;;;19.87;47.90;98986.13;613215;231;62726;-70
2023/12/17 11:03:16;;;;;;;;;;;;;;;19.86;47.90;98981.83;620594;228;64636;-70
2023/12/17 11:05:58;;;;;;;;;;;;;;;19.86;47.89;98980.98;613222;231;64323;-70
2023/12/17 11:08:26;;;;;;;;;;;;;;;19.85;47.97;98977.51;613530;231;67547;-70
2023/12/17 11:10:55;;;;;;;;;;;;;;;19.88;47.88;98978.92;617220;230;62262;-70
2023/12/17 11:13:23;;;;;;;;;;;;;;;19.85;47.85;98974.03;620588;228;62085;-71
2023/12/17 11:15:52;;;;;;;;;;;;;;;19.87;47.83;98977.30;613234;231;64581;-71
2023/12/17 11:18:23;;;;;;;;;;;;;;;19.87;47.81;98971.97;620583;228;64570;-71
2023/12/17 11:20:49;;;;;;;;;;;;;;;19.88;47.79;98982.41;613207;231;64563;-71
2023/12/17 11:23:17;;;;;;;;;;;;;;;19.88;47.94;98979.73;620583;228;64510;-71
2023/12/17 11:25:47;;;;;;;;;;;;;;;19.89;47.85;98977.91;613190;231;63117;-71
2023/12/17 11:28:22;;;;;;;;;;;;;;;19.88;47.83;98984.27;620608;228;64248;-70
2023/12/17 11:30:49;;;;;;;;;;;;;;;19.88;47.85;98989.60;613202;231;63558;-70
2023/12/17 11:33:17;;;;;;;;;;;;;;;19.87;47.88;98980.78;620575;228;62188;-70
2023/12/17 11:35:45;;;;;;;;;;;;;;;19.88;47.87;98990.41;613367;229;64180;-70
2023/12/17 11:38:13;;;;;;;;;;;;;;;19.88;47.91;98982.41;616560;229;62540;-70
2023/12/17 11:40:40;;;;;;;;;;;;;;;19.88;48.00;98984.27;620576;228;64541;-71
2023/12/17 11:43:08;;;;;;;;;;;;;;;19.88;47.92;98984.27;621551;227;64178;-68
2023/12/17 11:45:37;;;;;;;;;;;;;;;19.88;47.92;98978.92;619866;229;64534;-68
2023/12/17 11:48:10;;;;;;;;;;;;;;;19.88;47.95;98977.08;619873;229;62173;-68
2023/12/17 11:50:45;;;;;;;;;;;;;;;19.88;47.96;98969.06;619702;227;64225;-68
2023/12/17 11:53:14;;;;;;;;;;;;;;;19.90;47.98;98976.88;619896;229;64581;-69
2023/12/17 11:55:45;;;;;;;;;;;;;;;19.88;48.00;98965.59;619870;229;64407;-69
2023/12/17 11:58:15;;;;;;;;;;;;;;;19.89;47.96;98969.91;619921;229;62139;-69
2023/12/17 12:00:44;;;;;;;;;;;;;;;19.86;47.95;98971.16;619923;229;62935;-69
2023/12/17 12:03:11;;;;;;;;;;;;;;;19.90;47.99;98971.53;619321;229;62259;-69
2023/12/17 12:05:39;;;;;;;;;;;;;;;19.90;48.05;98966.20;619896;229;65085;-69
2023/12/17 12:08:06;;;;;;;;;;;;;;;19.89;48.01;98954.71;619915;229;64867;-69
2023/12/17 12:10:34;;;;;;;;;;;;;;;19.89;48.08;98959.23;619904;229;64437;-69
2023/12/17 12:13:02;;;;;;;;;;;;;;;19.88;48.05;98954.91;619914;229;64192;-69
2023/12/17 12:15:30;;;;;;;;;;;;;;;19.89;48.05;98945.89;619898;229;64676;-69
2023/12/17 12:17:58;;;;;;;;;;;;;;;19.90;48.10;98939.52;619899;229;62425;-69
2023/12/17 12:20:35;;;;;;;;;;;;;;;19.88;48.12;98936.23;619912;229;62128;-69
2023/12/17 12:23:04;;;;;;;;;;;;;;;19.88;48.09;98938.91;619919;229;64660;-68
2023/12/17 12:25:32;;;;;;;;;;;;;;;19.89;48.13;98936.03;619805;228;62122;-68
2023/12/17 12:27:59;;;;;;;;;;;;;;;19.88;48.13;98931.71;619904;229;62153;-68
2023/12/17 12:30:32;;;;;;;;;;;;;;;19.88;48.17;98934.37;619875;229;62536;-68
2023/12/17 12:33:10;;;;;;;;;;;;;;;19.89;48.19;98930.70;619892;229;64546;-68
2023/12/17 12:35:38;;;;;;;;;;;;;;;19.91;48.21;98927.80;619910;229;64322;-68
2023/12/17 12:38:24;;;;;;;;;;;;;;;19.89;48.25;98916.55;619895;229;64737;-68
2023/12/17 12:40:53;;;;;;;;;;;;;;;19.90;48.23;98915.50;619895;229;62310;-70
2023/12/17 12:43:21;;;;;;;;;;;;;;;19.90;48.22;98912.83;619213;229;62380;-70
2023/12/17 12:45:53;;;;;;;;;;;;;;;19.90;48.27;98907.49;617933;229;62690;-70
2023/12/17 12:48:22;;;;;;;;;;;;;;;19.90;48.23;98907.49;617961;229;62112;-71
2023/12/17 12:50:50;;;;;;;;;;;;;;;19.88;48.24;98894.36;617721;228;64167;-68
2023/12/17 12:53:18;;;;;;;;;;;;;;;19.88;48.27;98897.02;617876;229;64668;-68